Time;durP1;ratioP1;P1;durP2;ratioP2;P2;SDS_P1;SDS_P2;PMS_P1;PMS_P2;Temp;Humidity;BMP_temperature;BMP_pressure;BME280_temperature;BME280_humidity;BME280_pressure;Samples;Min_cycle;Max_cycle;Signal;HPM_P1;HPM_P2
2023/04/02 00:01:35;;;;;;;13.38;5.18;;;3.20;99.90;;;;;;5054284;28;20356;-64
2023/04/02 00:04:20;;;;;;;6.40;3.80;;;3.20;99.90;;;;;;5052955;28;20292;-64
2023/04/02 00:06:48;;;;;;;6.50;3.75;;;3.10;99.90;;;;;;5052367;28;20217;-64
2023/04/02 00:09:35;;;;;;;6.65;3.72;;;3.10;99.90;;;;;;5052898;28;20211;-65
2023/04/02 00:12:15;;;;;;;6.00;4.38;;;3.10;99.90;;;;;;5053050;28;20190;-64
2023/04/02 00:14:51;;;;;;;5.85;4.10;;;3.10;99.90;;;;;;5052584;28;20196;-64
2023/04/02 00:17:20;;;;;;;5.65;3.85;;;3.00;99.90;;;;;;5052976;28;20302;-63
2023/04/02 00:19:52;;;;;;;4.32;3.42;;;3.00;99.90;;;;;;5052845;28;20204;-64
2023/04/02 00:22:21;;;;;;;7.80;3.95;;;3.00;99.90;;;;;;5053026;28;20189;-64
2023/04/02 00:24:53;;;;;;;5.30;3.80;;;3.00;99.90;;;;;;5053375;28;20233;-65
2023/04/02 00:27:20;;;;;;;4.80;3.28;;;3.00;99.90;;;;;;5055931;28;20412;-64
2023/04/02 00:29:49;;;;;;;5.05;3.63;;;3.00;99.90;;;;;;5057280;28;20197;-63
2023/04/02 00:32:27;;;;;;;4.30;3.38;;;2.90;99.90;;;;;;5057117;28;20201;-64
2023/04/02 00:34:54;;;;;;;10.75;4.30;;;2.90;99.90;;;;;;5056884;28;20193;-64
2023/04/02 00:37:26;;;;;;;8.98;3.45;;;2.90;99.90;;;;;;5056372;28;20745;-63
2023/04/02 00:40:00;;;;;;;8.02;4.53;;;2.90;99.90;;;;;;5057240;28;20189;-63
2023/04/02 00:42:30;;;;;;;8.88;3.17;;;2.80;99.90;;;;;;5056682;28;20182;-63
2023/04/02 00:44:57;;;;;;;11.55;3.78;;;2.80;99.90;;;;;;5056163;28;20667;-64
2023/04/02 00:47:26;;;;;;;7.65;3.53;;;2.80;99.90;;;;;;5056480;28;20217;-64
2023/04/02 00:49:59;;;;;;;5.43;3.35;;;2.80;99.90;;;;;;5056184;28;20702;-64
2023/04/02 00:52:29;;;;;;;5.75;2.88;;;2.80;99.90;;;;;;5056418;28;20615;-64
2023/04/02 00:55:04;;;;;;;5.60;3.30;;;2.80;99.90;;;;;;5056204;28;20194;-64
2023/04/02 00:57:32;;;;;;;4.47;3.05;;;2.80;99.90;;;;;;5056395;28;20225;-64
2023/04/02 01:00:02;;;;;;;7.90;3.58;;;2.80;99.90;;;;;;5056432;28;20288;-64
2023/04/02 01:02:32;;;;;;;9.30;3.78;;;2.70;99.90;;;;;;5056262;28;20247;-63
2023/04/02 01:05:01;;;;;;;3.28;2.58;;;2.70;99.90;;;;;;5056288;28;20198;-64
2023/04/02 01:07:57;;;;;;;4.60;3.00;;;2.80;99.90;;;;;;5056029;28;20707;-63
2023/04/02 01:10:44;;;;;;;6.53;3.05;;;2.70;99.90;;;;;;5054411;28;20228;-63
2023/04/02 01:13:22;;;;;;;4.25;3.15;;;2.70;99.90;;;;;;5056312;28;20186;-63
2023/04/02 01:15:57;;;;;;;4.10;2.92;;;2.70;99.90;;;;;;5056787;28;20212;-63
2023/04/02 01:18:35;;;;;;;5.55;2.90;;;2.70;99.90;;;;;;5056841;28;20193;-64
2023/04/02 01:21:27;;;;;;;8.10;2.90;;;2.70;99.90;;;;;;5056445;28;20190;-63
2023/04/02 01:24:00;;;;;;;4.35;2.65;;;2.70;99.90;;;;;;5056004;28;20247;-64
2023/04/02 01:26:44;;;;;;;5.47;2.60;;;2.70;99.90;;;;;;5055741;28;20237;-64
2023/04/02 01:29:14;;;;;;;5.25;2.92;;;2.70;99.90;;;;;;5056277;28;20236;-64
2023/04/02 01:31:43;;;;;;;5.00;2.95;;;2.70;99.90;;;;;;5056437;28;20182;-64
2023/04/02 01:34:14;;;;;;;4.07;2.63;;;2.70;99.90;;;;;;5055804;28;20209;-61
2023/04/02 01:36:47;;;;;;;3.33;2.33;;;2.70;99.90;;;;;;5055837;28;20226;-61
2023/04/02 01:39:26;;;;;;;6.18;3.33;;;2.70;99.90;;;;;;5054864;28;20217;-61
2023/04/02 01:42:03;;;;;;;3.83;2.72;;;2.70;99.90;;;;;;5055763;28;20285;-61
2023/04/02 01:44:37;;;;;;;3.55;2.60;;;2.70;99.90;;;;;;5057659;28;20196;-62
2023/04/02 01:47:10;;;;;;;5.07;2.30;;;2.70;99.90;;;;;;5058774;28;20222;-61
2023/04/02 01:49:39;;;;;;;3.45;2.25;;;2.70;99.90;;;;;;5059806;28;20182;-61
2023/04/02 01:52:06;;;;;;;3.50;2.22;;;2.70;99.90;;;;;;5056605;28;20205;-61
2023/04/02 01:54:36;;;;;;;5.63;2.65;;;2.70;99.90;;;;;;5055801;28;20232;-63
2023/04/02 01:57:04;;;;;;;3.10;2.20;;;2.70;99.90;;;;;;5055234;28;20703;-62
2023/04/02 01:59:33;;;;;;;5.68;2.33;;;2.70;99.90;;;;;;5055487;28;20202;-61
2023/04/02 02:02:02;;;;;;;6.70;2.65;;;2.70;99.90;;;;;;5055435;28;20205;-61
2023/04/02 02:04:30;;;;;;;6.50;2.63;;;2.60;99.90;;;;;;5055311;28;20213;-61
2023/04/02 02:06:59;;;;;;;4.68;2.95;;;2.70;99.90;;;;;;5055339;28;20222;-62
2023/04/02 02:09:29;;;;;;;5.72;3.10;;;2.60;99.90;;;;;;5054994;28;20202;-62
2023/04/02 02:11:57;;;;;;;3.42;2.08;;;2.60;99.90;;;;;;5055096;28;20201;-62
2023/04/02 02:14:26;;;;;;;6.45;2.30;;;2.60;99.90;;;;;;5055171;28;20208;-59
2023/04/02 02:16:56;;;;;;;3.30;2.25;;;2.60;99.90;;;;;;5054921;28;20316;-61
2023/04/02 02:19:28;;;;;;;8.90;2.80;;;2.60;99.90;;;;;;5055246;28;20213;-61
2023/04/02 02:22:00;;;;;;;5.00;2.25;;;2.60;99.90;;;;;;5054748;28;20193;-61
2023/04/02 02:24:31;;;;;;;8.07;1.80;;;2.60;99.90;;;;;;5055055;28;20190;-61
2023/04/02 02:27:15;;;;;;;3.80;2.00;;;2.50;99.90;;;;;;5054478;28;20284;-62
2023/04/02 02:29:44;;;;;;;5.25;1.83;;;2.50;99.90;;;;;;5055869;28;20182;-61
2023/04/02 02:32:14;;;;;;;2.95;2.10;;;2.50;99.90;;;;;;5054510;28;20222;-62
2023/04/02 02:34:48;;;;;;;2.65;1.77;;;2.50;99.90;;;;;;5054833;28;20204;-62
2023/04/02 02:37:22;;;;;;;2.83;1.75;;;2.50;99.90;;;;;;5054412;28;20228;-62
2023/04/02 02:39:53;;;;;;;3.88;1.90;;;2.40;99.90;;;;;;5054984;28;20190;-62
2023/04/02 02:42:26;;;;;;;2.97;2.20;;;2.50;99.90;;;;;;5054988;28;20296;-61
2023/04/02 02:44:56;;;;;;;1.95;1.60;;;2.40;99.90;;;;;;5054513;28;20277;-61
2023/04/02 02:47:28;;;;;;;2.13;1.80;;;2.50;99.90;;;;;;5054475;28;20224;-61
2023/04/02 02:49:57;;;;;;;6.15;2.17;;;2.40;99.90;;;;;;5053646;28;20186;-61
2023/04/02 02:52:28;;;;;;;6.55;1.80;;;2.40;99.90;;;;;;5054484;28;20216;-61
2023/04/02 02:54:58;;;;;;;3.22;1.73;;;2.40;99.90;;;;;;5054177;28;20210;-61
2023/04/02 02:57:27;;;;;;;4.20;1.92;;;2.40;99.90;;;;;;5054131;28;20234;-61
2023/04/02 02:59:56;;;;;;;3.55;1.88;;;2.40;99.90;;;;;;5054608;28;20280;-61
2023/04/02 03:02:26;;;;;;;8.80;2.75;;;2.40;99.90;;;;;;5054358;28;20596;-61
2023/04/02 03:04:56;;;;;;;3.22;2.60;;;2.40;99.90;;;;;;5054545;28;20202;-61
2023/04/02 03:07:26;;;;;;;3.08;1.75;;;2.40;99.90;;;;;;5054022;28;20222;-61
2023/04/02 03:09:59;;;;;;;2.88;2.40;;;2.40;99.90;;;;;;5054326;28;20205;-61
2023/04/02 03:12:38;;;;;;;1.83;1.63;;;2.40;99.90;;;;;;5054316;28;20676;-61
2023/04/02 03:15:18;;;;;;;2.25;1.52;;;2.40;99.90;;;;;;5053985;28;20190;-61
2023/04/02 03:17:51;;;;;;;3.90;2.15;;;2.50;99.90;;;;;;5054160;28;20233;-61
2023/04/02 03:20:24;;;;;;;1.85;1.60;;;2.50;99.90;;;;;;5053985;28;20190;-61
2023/04/02 03:22:56;;;;;;;5.10;1.85;;;2.50;99.90;;;;;;5053594;28;20212;-62
2023/04/02 03:25:36;;;;;;;2.53;1.60;;;2.50;99.90;;;;;;5053769;28;20192;-62
2023/04/02 03:28:07;;;;;;;3.90;1.77;;;2.50;99.90;;;;;;5053071;28;20312;-62
2023/04/02 03:30:41;;;;;;;1.98;1.70;;;2.50;99.90;;;;;;5053790;28;20189;-62
2023/04/02 03:33:15;;;;;;;4.05;1.75;;;2.50;99.90;;;;;;5054787;28;20189;-62
2023/04/02 03:35:45;;;;;;;1.88;1.45;;;2.50;99.90;;;;;;5053703;28;20190;-61
2023/04/02 03:38:16;;;;;;;2.53;1.88;;;2.50;99.90;;;;;;5053175;28;20240;-60
2023/04/02 03:40:49;;;;;;;1.83;1.70;;;2.50;99.90;;;;;;5053226;28;20212;-61
2023/04/02 03:43:22;;;;;;;3.92;2.33;;;2.50;99.90;;;;;;5053476;28;20196;-60
2023/04/02 03:45:54;;;;;;;5.05;2.20;;;2.50;99.90;;;;;;5053478;28;20190;-61
2023/04/02 03:48:29;;;;;;;2.15;1.48;;;2.50;99.90;;;;;;5053828;28;20182;-61
2023/04/02 03:51:00;;;;;;;1.98;1.83;;;2.50;99.90;;;;;;5053603;28;20185;-61
2023/04/02 03:53:30;;;;;;;4.68;1.95;;;2.50;99.90;;;;;;5054261;28;20190;-60
2023/04/02 03:55:58;;;;;;;3.33;1.90;;;2.50;99.90;;;;;;5053614;28;20186;-61
2023/04/02 03:58:31;;;;;;;2.35;1.23;;;2.60;99.90;;;;;;5053212;28;20226;-61
2023/04/02 04:01:05;;;;;;;2.70;1.90;;;2.50;99.90;;;;;;5052596;28;20691;-61
2023/04/02 04:03:41;;;;;;;3.72;1.90;;;2.60;99.90;;;;;;5052834;28;20193;-61
2023/04/02 04:06:13;;;;;;;3.50;1.88;;;2.50;99.90;;;;;;5052799;28;20186;-61
2023/04/02 04:11:32;;;;;;;1.75;1.65;;;2.50;99.90;;;;;;5091069;27;20550;-60
2023/04/02 04:14:03;;;;;;;4.47;1.77;;;2.50;99.90;;;;;;5090408;28;20275;-60
2023/04/02 04:16:34;;;;;;;2.15;1.50;;;2.60;99.90;;;;;;5089946;28;20221;-60
2023/04/02 04:19:07;;;;;;;2.33;1.80;;;2.60;99.90;;;;;;5090142;28;20647;-60
2023/04/02 04:21:37;;;;;;;2.20;1.25;;;2.60;99.90;;;;;;5090501;28;20216;-60
2023/04/02 04:24:06;;;;;;;1.77;1.65;;;2.60;99.90;;;;;;5090853;28;20207;-61
2023/04/02 04:26:42;;;;;;;4.28;2.00;;;2.60;99.90;;;;;;5089704;28;20224;-61
2023/04/02 04:29:18;;;;;;;3.00;1.42;;;2.60;99.90;;;;;;5090122;28;20191;-60
2023/04/02 04:31:48;;;;;;;3.05;1.65;;;2.60;99.90;;;;;;5090321;28;20191;-61
2023/04/02 04:34:19;;;;;;;2.83;1.30;;;2.60;99.90;;;;;;5090083;28;20208;-60
2023/04/02 04:36:53;;;;;;;2.85;1.83;;;2.60;99.90;;;;;;5089899;28;20220;-60
2023/04/02 04:39:28;;;;;;;6.15;1.73;;;2.60;99.90;;;;;;5089675;28;20237;-62
2023/04/02 04:41:58;;;;;;;2.17;1.50;;;2.60;99.90;;;;;;5090744;28;20184;-61
2023/04/02 04:44:36;;;;;;;2.40;1.70;;;2.60;99.90;;;;;;5090093;28;20185;-62
2023/04/02 04:47:07;;;;;;;1.80;1.50;;;2.60;99.90;;;;;;5089897;28;20230;-61
2023/04/02 04:49:39;;;;;;;2.70;1.80;;;2.60;99.90;;;;;;5090563;28;20215;-61
2023/04/02 04:52:11;;;;;;;1.60;1.50;;;2.70;99.90;;;;;;5090250;28;20200;-61
2023/04/02 04:54:39;;;;;;;2.17;1.30;;;2.70;99.90;;;;;;5089839;28;20193;-61
2023/04/02 04:57:22;;;;;;;3.15;1.45;;;2.70;99.90;;;;;;5089836;28;20224;-61
2023/04/02 04:59:55;;;;;;;1.85;1.20;;;2.70;99.90;;;;;;5089863;28;20176;-61
2023/04/02 05:02:26;;;;;;;2.28;1.50;;;2.60;99.90;;;;;;5089426;28;20193;-61
2023/04/02 05:04:53;;;;;;;1.92;1.23;;;2.60;99.90;;;;;;5090492;28;20185;-60
2023/04/02 05:07:23;;;;;;;2.15;1.60;;;2.60;99.90;;;;;;5089759;28;20223;-62
2023/04/02 05:09:56;;;;;;;2.20;1.40;;;2.60;99.90;;;;;;5090135;28;20227;-61
2023/04/02 05:12:34;;;;;;;2.38;1.73;;;2.60;99.90;;;;;;5090270;28;20184;-60
2023/04/02 05:15:05;;;;;;;3.25;1.40;;;2.70;99.90;;;;;;5089688;28;20685;-61
2023/04/02 05:17:38;;;;;;;1.60;1.30;;;2.70;99.90;;;;;;5089484;28;20220;-61
2023/04/02 05:20:15;;;;;;;2.08;1.50;;;2.70;99.90;;;;;;5090370;28;20181;-61
2023/04/02 05:22:48;;;;;;;2.58;1.25;;;2.70;99.90;;;;;;5077313;28;20604;-61
2023/04/02 05:25:23;;;;;;;2.45;1.60;;;2.70;99.90;;;;;;5076580;28;20219;-61
2023/04/02 05:27:57;;;;;;;3.13;1.60;;;2.70;99.90;;;;;;5076842;28;20220;-61
2023/04/02 05:30:41;;;;;;;3.40;1.65;;;2.70;99.90;;;;;;5076437;28;20690;-60
2023/04/02 05:33:19;;;;;;;4.00;2.13;;;2.70;99.90;;;;;;5076554;28;20272;-61
2023/04/02 05:35:49;;;;;;;4.38;2.00;;;2.70;99.90;;;;;;5076927;28;20185;-60
2023/04/02 05:38:20;;;;;;;2.17;1.50;;;2.80;99.90;;;;;;5076272;28;20706;-60
2023/04/02 05:40:51;;;;;;;2.00;1.40;;;2.80;99.90;;;;;;5076731;28;20185;-60
2023/04/02 05:43:23;;;;;;;2.88;1.77;;;2.80;99.90;;;;;;5077302;28;20209;-61
2023/04/02 05:45:54;;;;;;;1.70;1.10;;;2.80;99.90;;;;;;5077834;28;20195;-62
2023/04/02 05:48:26;;;;;;;1.50;1.40;;;2.80;99.90;;;;;;5076488;28;20565;-61
2023/04/02 05:50:55;;;;;;;2.50;1.25;;;2.80;99.90;;;;;;5076053;28;20213;-60
2023/04/02 05:53:27;;;;;;;2.92;1.83;;;2.80;99.90;;;;;;5075553;28;20211;-59
2023/04/02 05:55:57;;;;;;;2.05;1.63;;;2.80;99.90;;;;;;5076406;28;20216;-61
2023/04/02 05:58:31;;;;;;;1.83;1.35;;;2.80;99.90;;;;;;5076017;28;20197;-61
2023/04/02 06:01:07;;;;;;;5.68;1.33;;;2.80;99.90;;;;;;5075945;28;20196;-63
2023/04/02 06:03:44;;;;;;;1.92;1.70;;;2.80;99.90;;;;;;5076368;28;20597;-62
2023/04/02 06:06:17;;;;;;;4.10;1.50;;;2.80;99.90;;;;;;5075708;28;20192;-61
2023/04/02 06:08:51;;;;;;;2.00;1.38;;;2.90;99.90;;;;;;5074885;28;20284;-60
2023/04/02 06:11:22;;;;;;;1.52;1.42;;;3.00;99.90;;;;;;5075041;28;20231;-62
2023/04/02 06:13:50;;;;;;;4.40;1.52;;;3.00;99.90;;;;;;5074996;28;20192;-60
2023/04/02 06:16:18;;;;;;;1.45;1.30;;;3.00;99.90;;;;;;5074892;28;20236;-61
2023/04/02 06:18:45;;;;;;;2.50;1.50;;;3.10;99.90;;;;;;5075041;28;20196;-61
2023/04/02 06:21:15;;;;;;;4.53;2.05;;;3.10;99.90;;;;;;5075072;28;20204;-61
2023/04/02 06:23:48;;;;;;;4.05;1.60;;;3.10;99.90;;;;;;5075292;28;20205;-62
2023/04/02 06:26:20;;;;;;;2.88;1.65;;;3.10;99.90;;;;;;5074703;28;20719;-61
2023/04/02 06:28:51;;;;;;;3.63;1.55;;;3.10;99.90;;;;;;5086530;22;20678;-62
2023/04/02 06:31:25;;;;;;;1.40;1.13;;;3.20;99.90;;;;;;5057697;28;20216;-60
2023/04/02 06:33:53;;;;;;;2.67;1.75;;;3.20;99.90;;;;;;5057468;28;20212;-62
2023/04/02 06:36:21;;;;;;;1.65;1.35;;;3.30;99.90;;;;;;5059150;28;20213;-60
2023/04/02 06:38:49;;;;;;;3.85;1.45;;;3.30;99.90;;;;;;5058319;28;20217;-59
2023/04/02 06:41:20;;;;;;;1.95;1.50;;;3.30;99.90;;;;;;5059283;28;20225;-61
2023/04/02 06:43:52;;;;;;;3.83;1.30;;;3.40;99.90;;;;;;5058829;28;20186;-60
2023/04/02 06:46:25;;;;;;;2.28;1.52;;;3.30;99.90;;;;;;5058560;28;20538;-61
2023/04/02 06:48:56;;;;;;;3.13;1.50;;;3.40;99.90;;;;;;5059026;28;20268;-60
2023/04/02 06:51:25;;;;;;;1.55;1.33;;;3.40;99.90;;;;;;5057867;28;20205;-61
2023/04/02 06:53:52;;;;;;;3.25;1.55;;;3.40;99.90;;;;;;5058286;28;20214;-59
2023/04/02 06:56:27;;;;;;;2.65;1.88;;;3.40;99.90;;;;;;5059265;28;20296;-61
2023/04/02 06:58:55;;;;;;;2.30;2.10;;;3.40;99.90;;;;;;5058732;28;20221;-63
2023/04/02 07:01:25;;;;;;;2.42;1.58;;;3.40;99.90;;;;;;5057454;28;20212;-62
2023/04/02 07:03:53;;;;;;;4.63;1.70;;;3.50;99.90;;;;;;5057807;28;20290;-62
2023/04/02 07:06:21;;;;;;;5.10;1.67;;;3.50;99.90;;;;;;5057114;28;20205;-61
2023/04/02 07:08:48;;;;;;;3.15;1.98;;;3.60;99.90;;;;;;5056523;28;20375;-61
2023/04/02 07:11:17;;;;;;;2.05;1.63;;;3.60;99.90;;;;;;5056517;28;20236;-61
2023/04/02 07:13:44;;;;;;;1.70;1.33;;;3.60;99.90;;;;;;5058120;28;20297;-60
2023/04/02 07:16:15;;;;;;;3.58;1.65;;;3.60;99.90;;;;;;5058944;28;20289;-61
2023/04/02 07:18:43;;;;;;;1.85;1.67;;;3.70;99.90;;;;;;5059091;28;20714;-61
2023/04/02 07:21:10;;;;;;;1.88;1.48;;;3.80;99.90;;;;;;5059742;28;20285;-61
2023/04/02 07:23:37;;;;;;;3.63;1.55;;;3.80;99.90;;;;;;5061300;28;20202;-60
2023/04/02 07:26:06;;;;;;;3.13;1.92;;;3.80;99.90;;;;;;5063261;28;20212;-62
2023/04/02 07:28:33;;;;;;;2.10;1.33;;;3.90;99.90;;;;;;5065458;28;20222;-62
2023/04/02 07:31:00;;;;;;;7.90;1.90;;;3.90;99.90;;;;;;5065564;28;20278;-62
2023/04/02 07:33:30;;;;;;;3.30;1.30;;;3.90;99.90;;;;;;5065727;28;20288;-61
2023/04/02 07:35:58;;;;;;;4.10;2.08;;;3.90;99.90;;;;;;5065857;28;20212;-61
2023/04/02 07:38:25;;;;;;;1.50;1.35;;;4.00;99.90;;;;;;5066657;28;20269;-62
2023/04/02 07:40:51;;;;;;;3.92;2.05;;;3.90;99.90;;;;;;5067238;28;20229;-62
2023/04/02 07:43:18;;;;;;;3.25;1.58;;;4.00;99.90;;;;;;5064449;28;20285;-61
2023/04/02 07:45:45;;;;;;;4.72;1.27;;;4.00;99.90;;;;;;5062292;28;20302;-62
2023/04/02 07:48:14;;;;;;;1.95;1.40;;;4.00;99.90;;;;;;5061408;28;20279;-62
2023/04/02 07:50:42;;;;;;;2.03;1.30;;;4.10;99.90;;;;;;5062868;28;20257;-61
2023/04/02 07:53:26;;;;;;;2.45;1.50;;;4.10;99.90;;;;;;5062204;28;20288;-62
2023/04/02 07:55:53;;;;;;;3.47;1.60;;;4.10;99.20;;;;;;5061643;28;20636;-62
2023/04/02 07:58:20;;;;;;;2.33;1.50;;;4.10;98.70;;;;;;5062989;28;20230;-62
2023/04/02 08:00:47;;;;;;;3.08;1.95;;;4.10;98.50;;;;;;5063294;28;20207;-59
2023/04/02 08:03:15;;;;;;;2.90;1.30;;;4.10;98.80;;;;;;5066064;28;20209;-61
2023/04/02 08:05:43;;;;;;;1.95;1.48;;;4.20;99.10;;;;;;5064711;28;20248;-61
2023/04/02 08:08:10;;;;;;;1.63;1.20;;;4.20;99.00;;;;;;5064003;28;20212;-63
2023/04/02 08:10:37;;;;;;;6.28;2.00;;;4.30;98.70;;;;;;5064123;28;20213;-61
2023/04/02 08:13:03;;;;;;;4.28;1.85;;;4.30;98.60;;;;;;5062748;28;20281;-60
2023/04/02 08:15:30;;;;;;;1.17;1.02;;;4.40;98.60;;;;;;5062170;28;20232;-62
2023/04/02 08:17:57;;;;;;;1.65;1.27;;;4.40;98.00;;;;;;5062480;28;20269;-61
2023/04/02 08:20:24;;;;;;;5.40;1.63;;;4.40;97.80;;;;;;5062482;28;20303;-61
2023/04/02 08:22:52;;;;;;;6.60;1.70;;;4.40;97.80;;;;;;5065040;28;20288;-61
2023/04/02 08:25:19;;;;;;;2.55;1.33;;;4.40;97.60;;;;;;5068580;28;20284;-61
2023/04/02 08:27:47;;;;;;;9.45;1.85;;;4.40;97.50;;;;;;5067402;28;20220;-61
2023/04/02 08:30:14;;;;;;;2.55;1.50;;;4.40;97.40;;;;;;5068727;28;20233;-61
2023/04/02 08:32:41;;;;;;;2.25;1.40;;;4.40;97.50;;;;;;5067123;28;20249;-59
2023/04/02 08:35:09;;;;;;;6.18;1.27;;;4.40;97.20;;;;;;5067195;28;20264;-62
2023/04/02 08:37:36;;;;;;;4.95;2.03;;;4.40;97.40;;;;;;5065741;28;20201;-61
2023/04/02 08:40:07;;;;;;;3.83;1.83;;;4.40;97.60;;;;;;5065273;28;20308;-63
2023/04/02 08:42:40;;;;;;;1.70;1.60;;;4.50;97.60;;;;;;5060251;28;20179;-62
2023/04/02 08:45:20;;;;;;;5.90;1.88;;;4.50;97.40;;;;;;5056070;28;20190;-65
2023/04/02 08:47:50;;;;;;;2.53;1.50;;;4.60;97.10;;;;;;5056259;28;20190;-62
2023/04/02 08:50:26;;;;;;;4.53;1.50;;;4.60;97.20;;;;;;5056080;28;20225;-61
2023/04/02 08:52:53;;;;;;;3.65;1.25;;;4.60;96.90;;;;;;5055200;28;20299;-62
2023/04/02 08:55:36;;;;;;;1.60;1.42;;;4.60;96.70;;;;;;5055566;28;20220;-64
2023/04/02 08:58:10;;;;;;;4.13;1.60;;;4.60;97.00;;;;;;5059808;28;20182;-64
2023/04/02 09:00:40;;;;;;;1.15;1.05;;;4.70;96.70;;;;;;5060568;28;20200;-63
2023/04/02 09:03:10;;;;;;;5.00;1.63;;;4.70;96.30;;;;;;5060139;28;20202;-62
2023/04/02 09:05:40;;;;;;;1.63;1.20;;;4.70;96.30;;;;;;5059576;28;20202;-62
2023/04/02 09:08:17;;;;;;;4.22;1.70;;;4.70;95.90;;;;;;5060435;28;20198;-63
2023/04/02 09:10:50;;;;;;;2.33;1.10;;;4.80;95.70;;;;;;5059082;28;20239;-62
2023/04/02 09:13:23;;;;;;;6.38;1.60;;;4.80;95.50;;;;;;5058489;28;20560;-61
2023/04/02 09:15:52;;;;;;;2.55;1.35;;;4.80;95.40;;;;;;5059189;28;20190;-63
2023/04/02 09:18:20;;;;;;;1.73;1.35;;;4.90;95.10;;;;;;5056993;28;20205;-62
2023/04/02 09:20:48;;;;;;;2.65;1.10;;;4.90;94.50;;;;;;5057240;28;20202;-60
2023/04/02 09:23:18;;;;;;;3.50;1.45;;;4.90;94.50;;;;;;5058044;28;20300;-61
2023/04/02 09:25:49;;;;;;;5.28;1.90;;;5.00;94.60;;;;;;5057867;28;20190;-62
2023/04/02 09:28:16;;;;;;;3.50;1.92;;;5.00;94.20;;;;;;5057882;28;20643;-60
2023/04/02 09:30:56;;;;;;;4.10;1.70;;;5.10;93.50;;;;;;5057155;28;20632;-61
2023/04/02 09:33:42;;;;;;;3.10;1.67;;;5.10;93.40;;;;;;5057131;28;20272;-60
2023/04/02 09:36:18;;;;;;;2.28;1.60;;;5.10;92.90;;;;;;5058363;28;20193;-61
2023/04/02 09:38:58;;;;;;;3.28;1.75;;;5.10;92.60;;;;;;5056771;28;20228;-58
2023/04/02 09:41:29;;;;;;;2.72;1.85;;;5.20;92.40;;;;;;5062302;28;20178;-62
2023/04/02 09:44:12;;;;;;;2.75;2.22;;;5.20;91.40;;;;;;5065025;28;20189;-66
2023/04/02 09:46:48;;;;;;;2.30;1.50;;;5.30;91.60;;;;;;5062865;28;20616;-63
2023/04/02 09:49:16;;;;;;;1.30;1.20;;;5.40;90.90;;;;;;5068325;28;20228;-63
2023/04/02 09:51:43;;;;;;;1.73;1.40;;;5.40;90.40;;;;;;5068661;28;20279;-64
2023/04/02 09:54:15;;;;;;;1.45;1.35;;;5.40;90.40;;;;;;5067379;28;20219;-63
2023/04/02 09:57:00;;;;;;;4.65;1.45;;;5.50;90.70;;;;;;5067334;28;20182;-62
2023/04/02 09:59:28;;;;;;;2.63;1.80;;;5.60;90.20;;;;;;5066829;28;20226;-64
2023/04/02 10:02:02;;;;;;;2.65;1.45;;;5.60;89.80;;;;;;5067231;28;20204;-63
2023/04/02 10:04:36;;;;;;;2.83;1.70;;;5.60;88.50;;;;;;5066097;28;20216;-61
2023/04/02 10:07:05;;;;;;;4.60;1.70;;;5.60;88.70;;;;;;5064430;28;20240;-63
2023/04/02 10:09:34;;;;;;;2.47;1.55;;;5.80;88.80;;;;;;5062978;28;20312;-62
2023/04/02 10:12:05;;;;;;;2.30;1.20;;;5.80;89.00;;;;;;5065681;28;20249;-64
2023/04/02 10:14:33;;;;;;;4.82;1.40;;;6.00;88.50;;;;;;5062352;28;20643;-63
2023/04/02 10:17:07;;;;;;;2.08;1.50;;;6.10;86.50;;;;;;5060717;28;20224;-62
2023/04/02 10:19:37;;;;;;;1.83;1.40;;;6.20;83.20;;;;;;5060110;28;20221;-64
2023/04/02 10:22:11;;;;;;;2.83;1.50;;;6.20;80.80;;;;;;5060397;28;20537;-64
2023/04/02 10:24:37;;;;;;;3.95;1.30;;;6.10;80.80;;;;;;5059648;28;20271;-64
2023/04/02 10:27:17;;;;;;;6.57;1.80;;;6.20;81.70;;;;;;5058671;28;20202;-62
2023/04/02 10:30:01;;;;;;;3.05;1.85;;;6.30;80.40;;;;;;5059742;28;20235;-64
2023/04/02 10:32:34;;;;;;;3.47;1.67;;;6.40;80.50;;;;;;5059430;28;20213;-65
2023/04/02 10:35:02;;;;;;;4.03;1.90;;;6.50;79.80;;;;;;5060065;28;20182;-63
2023/04/02 10:37:52;;;;;;;1.45;1.15;;;6.60;78.90;;;;;;5057841;28;20201;-65
2023/04/02 10:40:24;;;;;;;2.90;1.75;;;6.70;76.40;;;;;;5058310;28;20258;-63
2023/04/02 10:43:14;;;;;;;2.40;1.08;;;6.70;75.30;;;;;;5059026;28;20587;-64
2023/04/02 10:45:46;;;;;;;1.58;1.48;;;6.70;74.00;;;;;;5061410;28;20192;-63
2023/04/02 10:48:22;;;;;;;2.05;1.80;;;6.70;73.10;;;;;;5063326;28;20192;-63
2023/04/02 10:50:56;;;;;;;4.13;1.20;;;6.70;72.70;;;;;;5058508;28;20651;-63
2023/04/02 10:53:31;;;;;;;3.60;1.70;;;6.80;72.70;;;;;;5058982;28;20217;-64
2023/04/02 10:56:02;;;;;;;2.60;1.40;;;6.90;71.30;;;;;;5059887;28;20194;-65
2023/04/02 10:58:35;;;;;;;2.30;1.50;;;6.80;70.00;;;;;;5060675;28;20236;-63
2023/04/02 11:01:05;;;;;;;3.15;1.45;;;6.80;70.00;;;;;;5060658;28;20186;-62
2023/04/02 11:03:36;;;;;;;4.40;1.40;;;6.90;69.70;;;;;;5058783;28;20208;-64
2023/04/02 11:06:11;;;;;;;4.45;1.77;;;7.00;69.70;;;;;;5066065;28;20256;-64
2023/04/02 11:08:41;;;;;;;1.70;1.30;;;7.10;69.20;;;;;;5067142;28;20221;-63
2023/04/02 11:11:13;;;;;;;2.22;1.42;;;7.00;68.50;;;;;;5064806;28;20194;-64
2023/04/02 11:13:50;;;;;;;2.90;1.50;;;7.10;68.70;;;;;;5069052;28;20196;-62
2023/04/02 11:16:17;;;;;;;1.58;1.48;;;7.20;68.20;;;;;;5063761;28;20193;-63
2023/04/02 11:19:21;;;;;;;1.40;1.30;;;7.30;66.90;;;;;;5059293;28;20592;-65
2023/04/02 11:21:49;;;;;;;1.65;1.27;;;7.40;66.20;;;;;;5058356;28;20220;-62
2023/04/02 11:24:37;;;;;;;2.72;1.67;;;7.70;65.70;;;;;;5059336;28;20213;-62
2023/04/02 11:27:15;;;;;;;5.05;1.85;;;8.20;64.50;;;;;;5059146;28;20216;-63
2023/04/02 11:29:45;;;;;;;2.30;1.55;;;8.30;62.30;;;;;;5058610;28;20233;-64
2023/04/02 11:32:30;;;;;;;1.58;1.30;;;8.20;62.10;;;;;;5057827;28;20637;-63
2023/04/02 11:35:00;;;;;;;2.70;1.30;;;8.10;62.50;;;;;;5059142;28;20198;-63
2023/04/02 11:37:36;;;;;;;2.90;1.67;;;8.00;62.70;;;;;;5058838;28;20206;-61
2023/04/02 11:40:27;;;;;;;1.25;1.05;;;8.00;63.10;;;;;;5057253;28;20288;-63
2023/04/02 11:42:55;;;;;;;2.72;1.38;;;8.10;62.30;;;;;;5058853;28;20204;-64
2023/04/02 11:45:53;;;;;;;2.45;1.33;;;8.00;62.00;;;;;;5057913;28;20201;-64
2023/04/02 11:48:29;;;;;;;4.30;1.48;;;7.90;61.90;;;;;;5013514;28;20206;-63
2023/04/02 11:50:56;;;;;;;7.40;1.90;;;7.70;62.00;;;;;;5057340;28;20553;-63
2023/04/02 11:53:30;;;;;;;3.30;1.33;;;7.40;62.30;;;;;;5057350;28;20217;-64
2023/04/02 11:56:09;;;;;;;4.55;1.50;;;7.20;63.00;;;;;;5056302;28;20564;-63
2023/04/02 11:58:54;;;;;;;3.40;1.80;;;7.00;63.50;;;;;;5057178;28;20225;-63
2023/04/02 12:01:47;;;;;;;2.55;1.50;;;6.90;63.80;;;;;;5058450;28;20200;-63
2023/04/02 12:05:06;;;;;;;3.15;1.52;;;6.90;64.00;;;;;;5058643;28;20178;-65
2023/04/02 12:07:51;;;;;;;2.17;1.20;;;7.10;63.80;;;;;;4958105;29;20714;-63
2023/04/02 12:10:20;;;;;;;1.85;1.02;;;7.40;62.90;;;;;;4957483;29;20235;-64
2023/04/02 12:12:48;;;;;;;3.33;1.75;;;7.60;62.30;;;;;;5016140;28;20343;-64
2023/04/02 12:15:34;;;;;;;4.47;2.13;;;7.80;61.40;;;;;;5056861;28;20201;-64
2023/04/02 12:18:15;;;;;;;4.05;1.23;;;8.10;60.10;;;;;;5057475;28;20224;-64
2023/04/02 12:20:46;;;;;;;3.05;1.30;;;8.00;59.10;;;;;;5056818;28;20190;-64
2023/04/02 12:23:19;;;;;;;3.45;1.45;;;8.10;59.00;;;;;;5056410;28;20277;-64
2023/04/02 12:25:57;;;;;;;4.07;1.10;;;8.00;58.80;;;;;;5056220;28;20196;-63
2023/04/02 12:28:27;;;;;;;4.95;1.73;;;7.90;58.80;;;;;;5056090;28;20621;-65
2023/04/02 12:31:04;;;;;;;2.70;1.30;;;7.80;59.40;;;;;;5056766;28;20190;-63
2023/04/02 12:33:36;;;;;;;2.50;1.60;;;7.90;59.80;;;;;;5060141;28;20300;-63
2023/04/02 12:36:04;;;;;;;2.10;1.10;;;8.20;60.20;;;;;;5088687;22;20286;-75
2023/04/02 12:38:35;;;;;;;2.05;1.10;;;8.70;59.20;;;;;;5077903;28;20287;-74
2023/04/02 12:41:03;;;;;;;2.13;1.25;;;9.00;58.10;;;;;;5077643;28;20193;-73
2023/04/02 12:43:33;;;;;;;1.42;0.98;;;9.20;58.10;;;;;;5077625;28;20203;-73
2023/04/02 12:46:04;;;;;;;3.90;1.30;;;9.40;57.50;;;;;;5077285;28;20308;-72
2023/04/02 12:48:32;;;;;;;2.35;1.50;;;9.60;56.70;;;;;;5077530;28;20284;-72
2023/04/02 12:51:00;;;;;;;3.50;1.80;;;9.60;56.40;;;;;;5076961;28;20197;-72
2023/04/02 12:53:32;;;;;;;2.53;1.27;;;9.60;56.50;;;;;;5077415;28;20729;-71
2023/04/02 12:55:59;;;;;;;1.90;1.23;;;9.70;56.00;;;;;;5077228;28;20225;-72
2023/04/02 12:58:28;;;;;;;2.85;1.00;;;9.80;55.70;;;;;;5078178;28;20209;-73
2023/04/02 13:01:13;;;;;;;1.83;1.30;;;9.80;54.80;;;;;;5076928;28;20204;-72
2023/04/02 13:03:40;;;;;;;3.13;1.27;;;9.80;54.90;;;;;;5076668;28;20777;-72
2023/04/02 13:06:21;;;;;;;2.10;1.08;;;9.80;54.90;;;;;;5076538;28;20968;-72
2023/04/02 13:08:48;;;;;;;1.73;1.10;;;9.80;55.10;;;;;;5076775;28;20181;-70
2023/04/02 13:11:15;;;;;;;2.05;1.77;;;9.90;55.50;;;;;;5079888;28;20212;-66
2023/04/02 13:13:43;;;;;;;2.80;1.30;;;9.90;55.50;;;;;;5080224;28;20217;-67
2023/04/02 13:16:29;;;;;;;2.27;1.20;;;9.90;55.20;;;;;;5080033;28;20219;-65
2023/04/02 13:19:34;;;;;;;2.10;1.45;;;9.80;55.40;;;;;;5078823;28;20967;-69
2023/04/02 13:22:03;;;;;;;1.17;1.08;;;9.70;55.60;;;;;;4994948;28;20198;-68
2023/04/02 13:24:31;;;;;;;4.90;0.95;;;9.60;55.80;;;;;;5063301;28;20225;-67
2023/04/02 13:27:00;;;;;;;3.40;1.08;;;9.50;55.80;;;;;;5077490;28;20205;-70
2023/04/02 13:29:28;;;;;;;2.63;1.25;;;9.30;56.00;;;;;;5078429;28;20221;-67